createdAt,value
2018-05-29T00:01:47.514Z,14.77
2018-05-29T00:04:15.011Z,14.67
2018-05-29T00:06:42.519Z,15.30
2018-05-29T00:09:10.054Z,15.50
2018-05-29T00:11:37.548Z,15.47
2018-05-29T00:14:05.083Z,13.60
2018-05-29T00:16:32.581Z,14.70
2018-05-29T00:19:00.835Z,13.90
2018-05-29T00:21:28.357Z,15.00
2018-05-29T00:23:55.847Z,14.77
2018-05-29T00:26:23.329Z,14.87
2018-05-29T00:28:50.862Z,17.80
2018-05-29T00:31:18.353Z,13.97
2018-05-29T00:33:45.859Z,15.07
2018-05-29T00:36:13.388Z,14.27
2018-05-29T00:38:40.890Z,14.20
2018-05-29T00:41:08.390Z,15.90
2018-05-29T00:43:35.922Z,14.87
2018-05-29T00:46:03.428Z,14.73
2018-05-29T00:48:30.922Z,14.67
2018-05-29T00:50:59.313Z,13.57
2018-05-29T00:53:27.574Z,14.50
2018-05-29T00:55:55.071Z,14.97
2018-05-29T00:58:22.603Z,15.60
2018-05-29T01:00:50.094Z,15.67
2018-05-29T01:03:18.479Z,13.73
2018-05-29T01:05:45.971Z,15.77
2018-05-29T01:08:14.232Z,14.33
2018-05-29T01:10:41.769Z,14.63
2018-05-29T01:13:09.256Z,15.60
2018-05-29T01:15:36.754Z,16.30
2018-05-29T01:18:04.282Z,14.77
2018-05-29T01:20:31.776Z,16.67
2018-05-29T01:22:59.268Z,15.97
2018-05-29T01:25:26.796Z,16.10
2018-05-29T01:27:54.286Z,15.80
2018-05-29T01:30:21.779Z,18.20
2018-05-29T01:32:50.074Z,18.23
2018-05-29T01:35:18.343Z,18.33
2018-05-29T01:37:45.838Z,17.00
2018-05-29T01:40:14.131Z,18.13
2018-05-29T01:42:42.387Z,18.20
2018-05-29T01:45:09.921Z,18.17
2018-05-29T01:47:37.439Z,17.77
2018-05-29T01:50:04.936Z,19.77
2018-05-29T01:52:32.455Z,18.43
2018-05-29T01:54:59.950Z,19.60
2018-05-29T01:57:27.486Z,18.70
2018-05-29T01:59:54.969Z,18.77
2018-05-29T02:02:22.503Z,18.63
2018-05-29T02:04:49.994Z,19.30
2018-05-29T02:07:17.522Z,18.17
2018-05-29T02:09:45.027Z,17.90
2018-05-29T02:12:12.558Z,17.93
2018-05-29T02:14:40.809Z,18.70
2018-05-29T02:17:08.345Z,19.63
2018-05-29T02:19:35.838Z,18.97
2018-05-29T02:22:03.349Z,18.03
2018-05-29T02:24:30.839Z,17.83
2018-05-29T02:26:58.362Z,17.77
2018-05-29T02:29:25.844Z,18.23
2018-05-29T02:31:53.365Z,18.53
2018-05-29T02:34:21.635Z,19.10
2018-05-29T02:36:49.921Z,18.30
2018-05-29T02:39:18.176Z,17.50
2018-05-29T02:41:45.694Z,18.53
2018-05-29T02:44:13.191Z,17.80
2018-05-29T02:46:40.734Z,20.93
2018-05-29T02:49:08.227Z,19.47
2018-05-29T02:51:35.758Z,17.77
2018-05-29T02:54:04.017Z,20.00
2018-05-29T02:56:31.689Z,19.63
2018-05-29T02:58:59.179Z,18.93
2018-05-29T03:01:26.670Z,20.00
2018-05-29T03:03:54.964Z,19.73
2018-05-29T03:06:22.471Z,18.83
2018-05-29T03:08:50.002Z,20.23
2018-05-29T03:11:17.495Z,18.67
2018-05-29T03:13:45.014Z,19.37
2018-05-29T03:16:12.504Z,18.60
2018-05-29T03:18:40.799Z,18.60
2018-05-29T03:21:08.289Z,18.67
2018-05-29T03:23:35.823Z,19.80
2018-05-29T03:26:04.085Z,18.63
2018-05-29T03:28:31.610Z,19.80
2018-05-29T03:30:59.106Z,20.13
2018-05-29T03:33:26.638Z,19.20
2018-05-29T03:35:54.899Z,17.87
2018-05-29T03:38:22.416Z,19.20
2018-05-29T03:40:49.905Z,19.80
2018-05-29T03:43:17.432Z,19.63
2018-05-29T03:45:45.687Z,18.90
2018-05-29T03:48:13.210Z,19.23
2018-05-29T03:50:40.703Z,19.70
2018-05-29T03:53:08.218Z,21.77
2018-05-29T03:55:35.709Z,19.67
2018-05-29T03:58:03.238Z,19.70
2018-05-29T04:00:30.726Z,18.57
2018-05-29T04:02:58.257Z,18.73
2018-05-29T04:05:25.757Z,19.80
2018-05-29T04:07:53.279Z,19.43
2018-05-29T04:10:20.769Z,20.50
2018-05-29T04:12:48.294Z,19.57
2018-05-29T04:15:16.547Z,20.13
2018-05-29T04:17:44.071Z,19.90
2018-05-29T04:20:11.556Z,20.17
2018-05-29T04:22:39.073Z,18.50
2018-05-29T04:25:06.569Z,19.27
2018-05-29T04:27:34.854Z,20.33
2018-05-29T04:30:03.107Z,19.20
2018-05-29T04:32:30.626Z,20.27
2018-05-29T04:34:58.105Z,21.73
2018-05-29T04:37:25.633Z,20.67
2018-05-29T04:39:53.117Z,19.70
2018-05-29T04:42:21.367Z,20.93
2018-05-29T04:44:48.894Z,20.43
2018-05-29T04:47:16.378Z,19.93
2018-05-29T04:49:43.909Z,19.73
2018-05-29T04:52:11.398Z,19.73
2018-05-29T04:54:39.677Z,19.97
2018-05-29T04:57:07.940Z,20.20
2018-05-29T04:59:35.483Z,20.87
2018-05-29T05:02:02.978Z,21.40
2018-05-29T05:04:30.494Z,20.23
2018-05-29T05:06:57.987Z,20.10
2018-05-29T05:09:25.519Z,21.03
2018-05-29T05:11:53.027Z,22.93
2018-05-29T05:14:20.564Z,22.53
2018-05-29T05:16:48.826Z,21.23
2018-05-29T05:19:16.360Z,21.00
2018-05-29T05:21:43.854Z,21.27
2018-05-29T05:24:11.374Z,21.30
2018-05-29T05:26:39.617Z,20.87
2018-05-29T05:29:07.138Z,20.83
2018-05-29T05:31:34.631Z,20.90
2018-05-29T05:34:02.145Z,22.60
2018-05-29T05:36:30.417Z,23.90
2018-05-29T05:38:57.949Z,22.10
2018-05-29T05:41:25.457Z,21.43
2018-05-29T05:43:52.984Z,22.53
2018-05-29T05:46:20.482Z,21.20
2018-05-29T05:48:48.009Z,21.67
2018-05-29T05:51:16.266Z,22.07
2018-05-29T05:53:43.794Z,22.13
2018-05-29T05:56:11.276Z,21.70
2018-05-29T05:58:39.563Z,22.47
2018-05-29T06:01:07.050Z,21.53
2018-05-29T06:03:34.582Z,23.37
2018-05-29T06:06:02.091Z,22.50
2018-05-29T06:08:29.630Z,21.17
2018-05-29T06:10:57.125Z,22.47
2018-05-29T06:13:24.650Z,20.67
2018-05-29T06:15:52.909Z,23.00
2018-05-29T06:18:20.442Z,21.70
2018-05-29T06:20:47.926Z,22.10
2018-05-29T06:23:15.584Z,24.40
2018-05-29T06:25:43.069Z,30.13
2018-05-29T06:28:10.558Z,26.93
2018-05-29T06:30:38.081Z,20.63
2018-05-29T06:33:05.574Z,22.70
2018-05-29T06:35:33.090Z,20.13
2018-05-29T06:38:00.594Z,20.30
2018-05-29T06:40:28.118Z,20.37
2018-05-29T06:42:55.627Z,19.77
2018-05-29T06:45:23.150Z,29.37
2018-05-29T06:47:50.647Z,29.03
2018-05-29T06:50:18.949Z,21.47
2018-05-29T06:52:46.472Z,21.03
2018-05-29T06:55:13.993Z,21.17
2018-05-29T06:57:42.269Z,20.47
2018-05-29T07:00:09.805Z,20.10
2018-05-29T07:02:37.369Z,21.07
2018-05-29T07:05:04.911Z,25.37
2018-05-29T07:07:32.403Z,24.80
2018-05-29T07:09:59.941Z,22.60
2018-05-29T07:12:27.425Z,22.33
2018-05-29T07:14:54.941Z,20.43
2018-05-29T07:17:22.430Z,20.47
2018-05-29T07:19:49.968Z,19.63
2018-05-29T07:22:17.457Z,19.40
2018-05-29T07:24:45.002Z,20.43
2018-05-29T07:27:13.313Z,21.10
2018-05-29T07:29:40.762Z,18.47
2018-05-29T07:32:08.277Z,20.03
2018-05-29T07:34:36.525Z,20.47
2018-05-29T07:37:04.041Z,20.53
2018-05-29T07:39:31.553Z,19.47
2018-05-29T07:41:59.074Z,20.60
2018-05-29T07:44:26.562Z,19.20
2018-05-29T07:46:54.086Z,20.53
2018-05-29T07:49:21.574Z,21.93
2018-05-29T07:51:49.094Z,20.63
2018-05-29T07:54:16.586Z,20.23
2018-05-29T07:56:44.109Z,19.80
2018-05-29T07:59:12.357Z,20.07
2018-05-29T08:01:39.878Z,23.57
2018-05-29T08:04:07.380Z,19.57
2018-05-29T08:06:34.911Z,20.60
2018-05-29T08:09:02.408Z,20.40
2018-05-29T08:11:29.935Z,21.67
2018-05-29T08:13:58.189Z,22.80
2018-05-29T08:16:25.709Z,21.37
2018-05-29T08:18:53.957Z,19.37
2018-05-29T08:21:21.481Z,21.80
2018-05-29T08:23:48.968Z,21.00
2018-05-29T08:26:16.463Z,20.23
2018-05-29T08:28:43.982Z,20.50
2018-05-29T08:31:12.233Z,18.43
2018-05-29T08:33:39.755Z,19.90
2018-05-29T08:36:07.250Z,22.20
2018-05-29T08:38:34.775Z,22.97
2018-05-29T08:41:03.035Z,20.20
2018-05-29T08:43:30.541Z,20.33
2018-05-29T08:45:58.815Z,20.93
2018-05-29T08:48:27.075Z,20.53
2018-05-29T08:50:54.589Z,20.00
2018-05-29T08:53:22.849Z,19.73
2018-05-29T08:55:50.356Z,19.17
2018-05-29T08:58:17.855Z,21.07
2018-05-29T09:00:45.367Z,19.37
2018-05-29T09:03:12.864Z,21.47
2018-05-29T09:05:40.373Z,20.70
2018-05-29T09:08:07.866Z,21.13
2018-05-29T09:10:35.390Z,20.70
2018-05-29T09:13:02.878Z,22.37
2018-05-29T09:15:30.402Z,20.50
2018-05-29T09:17:58.662Z,21.80
2018-05-29T09:20:26.167Z,22.80
2018-05-29T09:22:53.679Z,19.00
2018-05-29T09:25:21.186Z,21.27
2018-05-29T09:27:48.683Z,20.47
2018-05-29T09:30:16.187Z,21.27
2018-05-29T09:32:43.693Z,20.37
2018-05-29T09:35:11.183Z,21.30
2018-05-29T09:37:39.458Z,21.43
2018-05-29T09:40:07.727Z,18.97
2018-05-29T09:42:35.245Z,20.10
2018-05-29T09:45:02.729Z,20.87
2018-05-29T09:47:31.002Z,20.93
2018-05-29T09:49:58.491Z,21.57
2018-05-29T09:52:26.011Z,22.97
2018-05-29T09:54:53.517Z,21.00
2018-05-29T09:57:21.038Z,19.47
2018-05-29T09:59:48.532Z,21.20
2018-05-29T10:02:16.805Z,19.77
2018-05-29T10:04:44.289Z,21.10
2018-05-29T10:07:11.843Z,19.27
2018-05-29T10:09:39.301Z,20.83
2018-05-29T10:12:06.821Z,20.40
2018-05-29T10:14:35.078Z,23.20
2018-05-29T10:17:02.623Z,19.30
2018-05-29T10:19:30.090Z,21.30
2018-05-29T10:21:57.610Z,20.70
2018-05-29T10:24:25.868Z,19.77
2018-05-29T10:26:53.373Z,22.00
2018-05-29T10:29:21.626Z,22.23
2018-05-29T10:31:49.133Z,19.77
2018-05-29T10:34:17.384Z,22.43
2018-05-29T10:36:44.896Z,21.20
2018-05-29T10:39:13.149Z,22.03
2018-05-29T10:41:40.661Z,21.37
2018-05-29T10:44:08.150Z,20.90
2018-05-29T10:46:35.657Z,20.67
2018-05-29T10:49:03.145Z,21.43
2018-05-29T10:51:31.417Z,21.17
2018-05-29T10:53:58.906Z,22.57
2018-05-29T10:56:27.153Z,20.30
2018-05-29T10:58:54.674Z,20.17
2018-05-29T11:01:22.924Z,21.07
2018-05-29T11:03:50.437Z,20.67
2018-05-29T11:06:18.686Z,20.27
2018-05-29T11:08:46.195Z,22.10
2018-05-29T11:11:15.118Z,21.17
2018-05-29T11:13:42.629Z,17.90
2018-05-29T11:16:10.126Z,21.07
2018-05-29T11:18:38.405Z,20.73
2018-05-29T11:21:05.892Z,23.40
2018-05-29T11:23:34.169Z,21.03
2018-05-29T11:26:02.421Z,21.87
2018-05-29T11:28:29.929Z,22.67
2018-05-29T11:30:57.413Z,23.90
2018-05-29T11:33:25.719Z,21.70
2018-05-29T11:35:53.206Z,21.57
2018-05-29T11:38:20.719Z,20.37
2018-05-29T11:40:48.215Z,21.10
2018-05-29T11:43:16.490Z,20.80
2018-05-29T11:45:44.738Z,21.40
2018-05-29T11:48:12.269Z,21.60
2018-05-29T11:50:39.770Z,20.60
2018-05-29T11:53:07.281Z,21.77
2018-05-29T11:55:34.768Z,30.33
2018-05-29T11:58:02.291Z,23.60
2018-05-29T12:00:29.786Z,23.73
2018-05-29T12:02:57.307Z,23.20
2018-05-29T12:05:24.790Z,25.93
2018-05-29T12:07:52.312Z,22.10
2018-05-29T12:10:20.562Z,23.60
2018-05-29T12:12:48.121Z,26.07
2018-05-29T12:15:15.573Z,26.00
2018-05-29T12:17:43.099Z,24.17
2018-05-29T12:20:10.598Z,27.77
2018-05-29T12:22:38.117Z,27.10
2018-05-29T12:25:05.629Z,28.67
2018-05-29T12:27:33.873Z,26.40
2018-05-29T12:30:01.373Z,27.93
2018-05-29T12:32:28.857Z,28.77
2018-05-29T12:34:57.200Z,28.43
2018-05-29T12:37:24.650Z,27.63
2018-05-29T12:39:52.175Z,31.63
2018-05-29T12:42:20.430Z,34.90
2018-05-29T12:44:47.943Z,30.80
2018-05-29T12:47:16.197Z,28.43
2018-05-29T12:49:43.713Z,30.13
2018-05-29T12:52:11.969Z,29.20
2018-05-29T12:54:39.481Z,31.20
2018-05-29T12:57:06.966Z,29.87
2018-05-29T12:59:34.474Z,26.47
2018-05-29T13:02:01.976Z,26.83
2018-05-29T13:04:33.305Z,25.30
2018-05-29T13:07:00.811Z,25.50
2018-05-29T13:09:29.091Z,25.23
2018-05-29T13:11:57.345Z,25.57
2018-05-29T13:14:24.858Z,25.10
2018-05-29T13:16:52.359Z,24.20
2018-05-29T13:19:19.878Z,22.90
2018-05-29T13:21:47.379Z,23.63
2018-05-29T13:24:14.900Z,22.90
2018-05-29T13:26:42.381Z,22.13
2018-05-29T13:29:09.890Z,21.30
2018-05-29T13:31:37.391Z,22.97
2018-05-29T13:34:04.912Z,21.47
2018-05-29T13:36:33.218Z,21.03
2018-05-29T13:39:00.847Z,19.40
2018-05-29T13:41:29.155Z,18.53
2018-05-29T13:43:56.665Z,19.37
2018-05-29T13:46:24.931Z,18.83
2018-05-29T13:48:53.206Z,19.10
2018-05-29T13:51:21.461Z,20.10
2018-05-29T13:53:48.969Z,20.20
2018-05-29T13:56:17.349Z,20.37
2018-05-29T13:58:44.874Z,20.90
2018-05-29T14:01:12.362Z,21.73
2018-05-29T14:03:39.888Z,19.83
2018-05-29T14:06:07.385Z,19.73
2018-05-29T14:08:34.907Z,18.63
2018-05-29T14:11:03.166Z,19.60
2018-05-29T14:13:30.715Z,18.20
2018-05-29T14:15:58.230Z,18.97
2018-05-29T14:18:26.526Z,19.20
2018-05-29T14:20:54.785Z,19.37
2018-05-29T14:23:24.330Z,17.53
2018-05-29T14:25:53.130Z,17.40
2018-05-29T14:28:20.650Z,16.90
2018-05-29T14:30:48.139Z,17.73
2018-05-29T14:33:15.667Z,17.10
2018-05-29T14:35:43.158Z,16.60
2018-05-29T14:38:10.685Z,16.43
2018-05-29T14:40:38.180Z,16.57
2018-05-29T14:43:05.709Z,19.33
2018-05-29T14:45:33.192Z,17.67
2018-05-29T14:48:01.487Z,21.10
2018-05-29T14:50:29.747Z,16.47
2018-05-29T14:52:57.280Z,19.87
2018-05-29T14:55:24.784Z,15.40
2018-05-29T14:57:52.313Z,16.63
2018-05-29T15:00:19.805Z,15.67
2018-05-29T15:02:47.331Z,15.07
2018-05-29T15:05:15.583Z,14.53
2018-05-29T15:07:43.101Z,15.07
2018-05-29T15:10:11.357Z,15.17
2018-05-29T15:12:38.883Z,13.93
2018-05-29T15:15:06.378Z,18.10
2018-05-29T15:17:33.870Z,15.40
2018-05-29T15:20:01.414Z,14.93
2018-05-29T15:22:28.899Z,15.37
2018-05-29T15:24:56.483Z,14.00
2018-05-29T15:27:23.935Z,12.63
2018-05-29T15:29:51.458Z,19.13
2018-05-29T15:32:18.945Z,14.63
2018-05-29T15:34:46.466Z,13.57
2018-05-29T15:37:13.957Z,12.53
2018-05-29T15:39:42.264Z,13.27
2018-05-29T15:42:09.759Z,13.73
2018-05-29T15:44:37.287Z,14.23
2018-05-29T15:47:06.556Z,12.83
2018-05-29T15:49:34.087Z,14.73
2018-05-29T15:52:01.581Z,14.67
2018-05-29T15:54:29.107Z,12.63
2018-05-29T15:56:56.594Z,13.03
2018-05-29T15:59:28.655Z,13.30
2018-05-29T16:01:56.918Z,13.37
2018-05-29T16:04:24.445Z,14.37
2018-05-29T16:06:51.929Z,15.03
2018-05-29T16:09:19.458Z,14.30
2018-05-29T16:11:46.947Z,14.90
2018-05-29T16:14:14.521Z,16.10
2018-05-29T16:16:41.973Z,16.73
2018-05-29T16:19:10.258Z,21.40
2018-05-29T16:21:37.753Z,22.40
2018-05-29T16:24:05.270Z,18.00
2018-05-29T16:26:32.771Z,17.70
2018-05-29T16:29:01.078Z,16.87
2018-05-29T16:31:28.571Z,17.03
2018-05-29T16:33:56.099Z,18.83
2018-05-29T16:36:24.355Z,18.63
2018-05-29T16:38:51.879Z,17.10
2018-05-29T16:41:19.366Z,18.20
2018-05-29T16:43:46.886Z,20.63
2018-05-29T16:46:14.375Z,17.27
2018-05-29T16:48:42.673Z,17.77
2018-05-29T16:51:22.727Z,18.23
2018-05-29T16:53:50.281Z,15.90
2018-05-29T16:56:17.766Z,16.97
2018-05-29T16:58:46.071Z,17.10
2018-05-29T17:01:13.574Z,16.23
2018-05-29T17:03:41.101Z,17.77
2018-05-29T17:06:08.603Z,14.97
2018-05-29T17:08:36.159Z,16.27
2018-05-29T17:11:03.646Z,14.90
2018-05-29T17:13:31.137Z,15.40
2018-05-29T17:15:58.668Z,15.57
2018-05-29T17:18:26.160Z,15.97
2018-05-29T17:20:53.687Z,15.43
2018-05-29T17:23:21.937Z,15.70
2018-05-29T17:25:49.459Z,17.37
2018-05-29T17:28:16.963Z,17.40
2018-05-29T17:30:44.493Z,16.70
2018-05-29T17:33:12.750Z,16.77
2018-05-29T17:35:40.272Z,16.43
2018-05-29T17:38:07.765Z,19.23
2018-05-29T17:40:35.292Z,18.90
2018-05-29T17:43:03.604Z,16.33
2018-05-29T17:45:31.866Z,16.80
2018-05-29T17:48:00.125Z,17.10
2018-05-29T17:50:27.675Z,17.87
2018-05-29T17:52:55.169Z,16.63
2018-05-29T17:55:22.693Z,16.27
2018-05-29T17:57:50.190Z,15.50
2018-05-29T18:00:17.720Z,15.87
2018-05-29T18:02:45.981Z,15.10
2018-05-29T18:05:13.501Z,14.83
2018-05-29T18:07:40.996Z,14.90
2018-05-29T18:10:08.535Z,17.00
2018-05-29T18:12:36.029Z,15.23
2018-05-29T18:15:03.557Z,13.87
2018-05-29T18:17:31.817Z,12.67
2018-05-29T18:19:59.337Z,14.63
2018-05-29T18:22:26.826Z,13.90
2018-05-29T18:24:54.370Z,15.70
2018-05-29T18:27:21.862Z,12.87
2018-05-29T18:29:49.385Z,11.73
2018-05-29T18:32:16.881Z,15.93
2018-05-29T18:34:44.417Z,16.87
2018-05-29T18:37:11.924Z,13.40
2018-05-29T18:39:39.459Z,13.97
2018-05-29T18:42:06.956Z,14.10
2018-05-29T18:44:35.272Z,14.83
2018-05-29T18:47:02.781Z,15.30
2018-05-29T18:49:30.285Z,16.03
2018-05-29T18:51:57.794Z,14.23
2018-05-29T18:54:26.331Z,15.73
2018-05-29T18:56:53.823Z,13.90
2018-05-29T18:59:21.358Z,14.53
2018-05-29T19:01:48.846Z,13.23
2018-05-29T19:04:17.096Z,12.87
2018-05-29T19:06:44.623Z,14.20
2018-05-29T19:09:12.116Z,15.70
2018-05-29T19:11:39.633Z,13.27
2018-05-29T19:14:07.117Z,13.20
2018-05-29T19:16:34.645Z,14.03
2018-05-29T19:19:02.141Z,13.50
2018-05-29T19:21:33.095Z,13.20
2018-05-29T19:24:00.586Z,15.07
2018-05-29T19:26:28.874Z,14.33
2018-05-29T19:28:57.203Z,13.70
2018-05-29T19:31:25.455Z,12.37
2018-05-29T19:33:53.709Z,16.37
2018-05-29T19:36:21.238Z,12.00
2018-05-29T19:38:48.741Z,13.03
2018-05-29T19:41:16.300Z,14.13
2018-05-29T19:43:43.820Z,17.17
2018-05-29T19:46:12.115Z,12.50
2018-05-29T19:48:39.618Z,14.33
2018-05-29T19:51:07.204Z,18.97
2018-05-29T19:53:35.434Z,14.57
2018-05-29T19:56:03.737Z,13.53
2018-05-29T19:58:31.991Z,15.10
2018-05-29T20:00:59.514Z,14.30
2018-05-29T20:03:31.002Z,14.23
2018-05-29T20:05:58.524Z,13.70
2018-05-29T20:08:26.798Z,13.43
2018-05-29T20:10:54.323Z,14.63
2018-05-29T20:13:21.819Z,13.77
2018-05-29T20:15:49.354Z,15.83
2018-05-29T20:18:16.841Z,13.37
2018-05-29T20:20:44.370Z,14.93
2018-05-29T20:23:12.636Z,14.73
2018-05-29T20:25:51.334Z,14.10
2018-05-29T20:28:18.830Z,14.23
2018-05-29T20:30:46.350Z,13.30
2018-05-29T20:33:13.842Z,13.97
2018-05-29T20:35:41.382Z,13.60
2018-05-29T20:38:08.870Z,13.53
2018-05-29T20:40:36.390Z,12.50
2018-05-29T20:43:03.889Z,14.57
2018-05-29T20:45:32.178Z,12.67
2018-05-29T20:48:00.446Z,11.80
2018-05-29T20:50:27.976Z,11.83
2018-05-29T20:52:55.473Z,13.03
2018-05-29T20:55:23.014Z,12.00
2018-05-29T20:57:51.269Z,13.30
2018-05-29T21:00:18.758Z,21.50
2018-05-29T21:02:46.282Z,12.20
2018-05-29T21:05:13.771Z,13.37
2018-05-29T21:07:42.062Z,12.63
2018-05-29T21:10:10.314Z,16.63
2018-05-29T21:12:37.851Z,11.53
2018-05-29T21:15:05.338Z,14.40
2018-05-29T21:17:32.863Z,11.90
2018-05-29T21:20:01.119Z,13.00
2018-05-29T21:22:28.652Z,12.13
2018-05-29T21:24:56.141Z,11.23
2018-05-29T21:27:23.666Z,20.07
2018-05-29T21:29:51.922Z,15.97
2018-05-29T21:32:19.455Z,12.30
2018-05-29T21:34:46.942Z,11.60
2018-05-29T21:37:14.461Z,11.40
2018-05-29T21:39:42.713Z,12.73
2018-05-29T21:42:10.250Z,15.40
2018-05-29T21:44:37.764Z,12.10
2018-05-29T21:47:05.283Z,17.17
2018-05-29T21:49:32.782Z,13.13
2018-05-29T21:52:00.307Z,13.70
2018-05-29T21:54:28.579Z,12.13
2018-05-29T21:56:56.110Z,11.67
2018-05-29T21:59:23.601Z,11.90
2018-05-29T22:01:51.119Z,12.30
2018-05-29T22:04:18.611Z,13.10
2018-05-29T22:06:46.906Z,12.80
2018-05-29T22:09:14.384Z,10.80
2018-05-29T22:11:41.910Z,12.43
2018-05-29T22:14:09.403Z,11.27
2018-05-29T22:16:36.926Z,12.10
2018-05-29T22:19:04.423Z,12.23
2018-05-29T22:21:32.710Z,19.10
2018-05-29T22:24:00.967Z,14.67
2018-05-29T22:26:28.499Z,12.27
2018-05-29T22:28:55.999Z,12.57
2018-05-29T22:31:23.526Z,13.57
2018-05-29T22:33:51.025Z,12.60
2018-05-29T22:36:18.515Z,14.60
2018-05-29T22:38:46.042Z,14.13
2018-05-29T22:41:14.294Z,12.60
2018-05-29T22:43:42.589Z,12.83
2018-05-29T22:46:10.838Z,14.50
2018-05-29T22:48:38.367Z,13.13
2018-05-29T22:51:05.858Z,17.00
2018-05-29T22:53:34.167Z,20.90
2018-05-29T22:56:01.669Z,11.53
2018-05-29T22:58:29.187Z,13.50
2018-05-29T23:00:56.686Z,18.37
2018-05-29T23:03:24.221Z,16.80
2018-05-29T23:05:51.716Z,14.50
2018-05-29T23:08:19.245Z,14.37
2018-05-29T23:10:46.733Z,15.63
2018-05-29T23:13:14.254Z,14.03
2018-05-29T23:15:41.752Z,14.50
2018-05-29T23:18:09.287Z,14.50
2018-05-29T23:20:36.783Z,13.60
2018-05-29T23:23:05.072Z,18.50
2018-05-29T23:25:33.317Z,13.10
2018-05-29T23:28:00.848Z,13.87
2018-05-29T23:30:28.348Z,19.10
2018-05-29T23:32:55.836Z,12.83
2018-05-29T23:35:23.371Z,13.93
2018-05-29T23:37:50.863Z,15.63
2018-05-29T23:40:18.351Z,15.03
2018-05-29T23:42:46.032Z,14.50
2018-05-29T23:45:13.517Z,13.77
2018-05-29T23:47:41.001Z,14.00
2018-05-29T23:50:09.303Z,14.37
2018-05-29T23:52:36.790Z,13.20
2018-05-29T23:55:04.421Z,12.90
2018-05-29T23:57:32.678Z,15.10
